Time,TemperatureF,DewpointF,PressureIn,WindDirection,WindDirectionDegrees,WindSpeedMPH,WindSpeedGustMPH,Humidity,HourlyPrecipIn,Conditions,Clouds,dailyrainin,SolarRadiationWatts/m^2,SoftwareType,DateUTC
2013-10-19 00:44:00,50.0,49.0,-100.00,NNE,20,1.0,3.0,95,0.00,,,0.00,0.000000,,2013-10-19 04:44:00,
2013-10-19 00:54:00,50.0,49.0,-100.00,NNE,20,1.0,3.0,95,0.00,,,0.00,0.000000,,2013-10-19 04:54:00,
2013-10-19 01:04:00,50.0,49.0,-100.00,NNE,20,1.0,3.0,95,0.00,,,0.00,0.000000,,2013-10-19 05:04:00,
2013-10-19 01:42:00,50.0,49.0,-100.00,NNE,24,1.0,2.0,97,0.00,,,0.00,0.000000,,2013-10-19 05:42:00,
2013-10-19 01:52:00,50.0,49.0,-100.00,NNE,24,1.0,2.0,97,0.00,,,0.00,0.000000,,2013-10-19 05:52:00,
2013-10-19 02:02:00,50.0,49.0,-100.00,NNE,24,1.0,2.0,97,0.00,,,0.00,0.000000,,2013-10-19 06:02:00,
2013-10-19 02:42:00,50.0,49.0,-100.00,NNE,20,1.0,3.0,97,0.00,,,0.00,0.000000,,2013-10-19 06:42:00,
2013-10-19 02:52:00,50.0,49.0,-100.00,NNE,20,1.0,3.0,97,0.00,,,0.00,0.000000,,2013-10-19 06:52:00,
2013-10-19 03:02:00,50.0,49.0,-100.00,NNE,20,1.0,3.0,97,0.00,,,0.00,0.000000,,2013-10-19 07:02:00,
2013-10-19 03:42:00,50.0,49.0,-100.00,NNE,20,1.0,2.0,96,0.00,,,0.00,0.000000,,2013-10-19 07:42:00,
2013-10-19 03:53:00,50.0,49.0,-100.00,NNE,20,1.0,2.0,96,0.00,,,0.00,0.000000,,2013-10-19 07:53:00,
2013-10-19 04:03:00,50.0,49.0,-100.00,NNE,20,1.0,2.0,96,0.00,,,0.00,0.000000,,2013-10-19 08:03:00,
2013-10-19 04:42:00,49.0,48.0,-100.00,NNE,24,1.0,3.0,96,0.00,,,0.00,0.000000,,2013-10-19 08:42:00,
2013-10-19 04:52:00,49.0,48.0,-100.00,NNE,24,1.0,3.0,96,0.00,,,0.00,0.000000,,2013-10-19 08:52:00,
2013-10-19 05:02:00,49.0,48.0,-100.00,NNE,24,1.0,3.0,96,0.00,,,0.00,0.000000,,2013-10-19 09:02:00,
2013-10-19 05:43:00,49.0,48.0,-100.00,NNE,21,1.0,2.0,97,0.00,,,0.00,0.000000,,2013-10-19 09:43:00,
2013-10-19 05:54:00,49.0,48.0,-100.00,NNE,21,1.0,2.0,97,0.00,,,0.00,0.000000,,2013-10-19 09:54:00,
2013-10-19 06:03:00,49.0,48.0,-100.00,NNE,21,1.0,2.0,97,0.00,,,0.00,0.000000,,2013-10-19 10:03:00,
2013-10-19 06:42:00,49.0,48.0,-100.00,NNE,22,0.0,2.0,97,0.00,,,0.00,0.000000,,2013-10-19 10:42:00,
2013-10-19 06:53:00,49.0,48.0,-100.00,NNE,22,0.0,2.0,97,0.00,,,0.00,0.000000,,2013-10-19 10:53:00,
2013-10-19 07:03:00,49.0,48.0,-100.00,NNE,22,0.0,2.0,97,0.00,,,0.00,0.000000,,2013-10-19 11:03:00,
2013-10-19 07:42:00,49.0,48.0,-100.00,NNE,29,0.0,3.0,97,0.00,,,0.00,0.000000,,2013-10-19 11:42:00,
2013-10-19 07:52:00,49.0,48.0,-100.00,NNE,29,0.0,3.0,97,0.00,,,0.00,0.000000,,2013-10-19 11:52:00,
2013-10-19 08:02:00,49.0,48.0,-100.00,NNE,29,0.0,3.0,97,0.00,,,0.00,0.000000,,2013-10-19 12:02:00,
2013-10-19 08:43:00,49.0,48.0,-100.00,NNE,27,1.0,2.0,97,0.00,,,0.00,2.000000,,2013-10-19 12:43:00,
2013-10-19 08:52:00,49.0,48.0,-100.00,NNE,27,1.0,2.0,97,0.00,,,0.00,2.000000,,2013-10-19 12:52:00,
2013-10-19 09:02:00,49.0,48.0,-100.00,NNE,27,1.0,2.0,97,0.00,,,0.00,2.000000,,2013-10-19 13:02:00,
2013-10-19 09:42:00,51.0,50.0,-100.00,NE,39,0.0,3.0,97,0.00,,,0.00,55.000000,,2013-10-19 13:42:00,
2013-10-19 09:52:00,51.0,50.0,-100.00,NE,39,0.0,3.0,97,0.00,,,0.00,55.000000,,2013-10-19 13:52:00,
2013-10-19 10:02:00,51.0,50.0,-100.00,NE,39,0.0,3.0,97,0.00,,,0.00,55.000000,,2013-10-19 14:02:00,
2013-10-19 10:42:00,54.0,52.0,-100.00,NNE,29,1.0,4.0,92,0.00,,,0.00,128.000000,,2013-10-19 14:42:00,
2013-10-19 10:52:00,54.0,52.0,-100.00,NNE,29,1.0,4.0,92,0.00,,,0.00,128.000000,,2013-10-19 14:52:00,
2013-10-19 11:02:00,54.0,52.0,-100.00,NNE,29,1.0,4.0,92,0.00,,,0.00,128.000000,,2013-10-19 15:02:00,
2013-10-19 11:44:00,58.0,54.0,-100.00,NE,39,1.0,4.0,85,0.00,,,0.00,233.000000,,2013-10-19 15:44:00,
2013-10-19 11:55:00,58.0,54.0,-100.00,NE,39,1.0,4.0,85,0.00,,,0.00,233.000000,,2013-10-19 15:55:00,
2013-10-19 12:04:00,58.0,54.0,-100.00,NE,39,1.0,4.0,85,0.00,,,0.00,233.000000,,2013-10-19 16:04:00,
2013-10-19 12:43:00,60.0,50.0,-100.00,NE,40,3.0,9.0,70,0.00,,,0.00,198.000000,,2013-10-19 16:43:00,
2013-10-19 12:53:00,60.0,50.0,-100.00,NE,40,3.0,9.0,70,0.00,,,0.00,198.000000,,2013-10-19 16:53:00,
2013-10-19 13:03:00,60.0,50.0,-100.00,NE,40,3.0,9.0,70,0.00,,,0.00,198.000000,,2013-10-19 17:03:00,
2013-10-19 13:43:00,60.0,48.0,-100.00,NE,43,3.0,9.0,65,0.00,,,0.00,244.000000,,2013-10-19 17:43:00,
2013-10-19 13:52:00,60.0,48.0,-100.00,NE,43,3.0,9.0,65,0.00,,,0.00,244.000000,,2013-10-19 17:52:00,
2013-10-19 14:02:00,60.0,48.0,-100.00,NE,43,3.0,9.0,65,0.00,,,0.00,244.000000,,2013-10-19 18:02:00,
2013-10-19 14:42:00,63.0,49.0,-100.00,NNE,14,2.0,8.0,60,0.00,,,0.00,241.000000,,2013-10-19 18:42:00,
2013-10-19 14:52:00,63.0,49.0,-100.00,NNE,14,2.0,8.0,60,0.00,,,0.00,241.000000,,2013-10-19 18:52:00,
2013-10-19 15:02:00,63.0,49.0,-100.00,NNE,14,2.0,8.0,60,0.00,,,0.00,241.000000,,2013-10-19 19:02:00,
2013-10-19 15:42:00,63.0,46.0,-100.00,NE,48,2.0,6.0,54,0.00,,,0.00,266.000000,,2013-10-19 19:42:00,
2013-10-19 15:52:00,63.0,46.0,-100.00,NE,48,2.0,6.0,54,0.00,,,0.00,266.000000,,2013-10-19 19:52:00,
2013-10-19 16:03:00,63.0,46.0,-100.00,NE,48,2.0,6.0,54,0.00,,,0.00,266.000000,,2013-10-19 20:03:00,
2013-10-19 16:42:00,66.0,46.0,-100.00,NNE,14,4.0,11.0,48,0.00,,,0.00,481.000000,,2013-10-19 20:42:00,
2013-10-19 16:52:00,66.0,46.0,-100.00,NNE,14,4.0,11.0,48,0.00,,,0.00,481.000000,,2013-10-19 20:52:00,
2013-10-19 17:02:00,66.0,46.0,-100.00,NNE,14,4.0,11.0,48,0.00,,,0.00,481.000000,,2013-10-19 21:02:00,
2013-10-19 17:44:00,62.0,44.0,-100.00,NNE,16,3.0,10.0,51,0.00,,,0.00,345.000000,,2013-10-19 21:44:00,
2013-10-19 17:54:00,62.0,44.0,-100.00,NNE,16,3.0,10.0,51,0.00,,,0.00,345.000000,,2013-10-19 21:54:00,
2013-10-19 18:04:00,62.0,44.0,-100.00,NNE,16,3.0,10.0,51,0.00,,,0.00,345.000000,,2013-10-19 22:04:00,
2013-10-19 18:43:00,58.0,47.0,-100.00,NNE,29,2.0,9.0,68,0.00,,,0.00,75.000000,,2013-10-19 22:43:00,
2013-10-19 18:53:00,58.0,47.0,-100.00,NNE,29,2.0,9.0,68,0.00,,,0.00,75.000000,,2013-10-19 22:53:00,
2013-10-19 19:03:00,58.0,47.0,-100.00,NNE,29,2.0,9.0,68,0.00,,,0.00,75.000000,,2013-10-19 23:03:00,
2013-10-19 19:42:00,56.0,49.0,-100.00,NNE,24,2.0,6.0,78,0.00,,,0.00,22.000000,,2013-10-19 23:42:00,
2013-10-19 19:53:00,56.0,49.0,-100.00,NNE,24,2.0,6.0,78,0.00,,,0.00,22.000000,,2013-10-19 23:53:00,
2013-10-19 20:02:00,56.0,49.0,-100.00,NNE,24,2.0,6.0,78,0.00,,,0.00,22.000000,,2013-10-20 00:02:00,
2013-10-19 20:42:00,55.0,49.0,-100.00,NNE,16,3.0,11.0,79,0.00,,,0.00,0.000000,,2013-10-20 00:42:00,
2013-10-19 20:52:00,55.0,49.0,-100.00,NNE,16,3.0,11.0,79,0.00,,,0.00,0.000000,,2013-10-20 00:52:00,
2013-10-19 21:02:00,55.0,49.0,-100.00,NNE,16,3.0,11.0,79,0.00,,,0.00,0.000000,,2013-10-20 01:02:00,
2013-10-19 21:42:00,54.0,47.0,-100.00,NNE,22,2.0,9.0,78,0.00,,,0.00,0.000000,,2013-10-20 01:42:00,
2013-10-19 21:53:00,54.0,47.0,-100.00,NNE,22,2.0,9.0,78,0.00,,,0.00,0.000000,,2013-10-20 01:53:00,
2013-10-19 22:02:00,54.0,47.0,-100.00,NNE,22,2.0,9.0,78,0.00,,,0.00,0.000000,,2013-10-20 02:02:00,
2013-10-19 22:42:00,52.0,46.0,-100.00,NNE,30,3.0,18.0,81,0.00,,,0.00,0.000000,,2013-10-20 02:42:00,
2013-10-19 22:52:00,52.0,46.0,-100.00,NNE,30,3.0,18.0,81,0.00,,,0.00,0.000000,,2013-10-20 02:52:00,
2013-10-19 23:02:00,52.0,46.0,-100.00,NNE,30,3.0,18.0,81,0.00,,,0.00,0.000000,,2013-10-20 03:02:00,
2013-10-19 23:44:00,51.0,46.0,-100.00,North,11,3.0,9.0,84,0.00,,,0.00,0.000000,,2013-10-20 03:44:00,
2013-10-19 23:55:00,51.0,46.0,-100.00,North,11,3.0,9.0,84,0.00,,,0.00,0.000000,,2013-10-20 03:55:00,